createdAt,value
2017-05-30T00:00:02.753Z,22.63
2017-05-30T00:00:43.343Z,22.63
2017-05-30T00:01:23.941Z,22.78
2017-05-30T00:02:04.525Z,22.81
2017-05-30T00:02:45.097Z,22.72
2017-05-30T00:03:25.685Z,22.7
2017-05-30T00:04:06.259Z,22.66
2017-05-30T00:04:46.846Z,22.59
2017-05-30T00:05:27.439Z,22.59
2017-05-30T00:06:08.016Z,22.65
2017-05-30T00:06:48.595Z,22.68
2017-05-30T00:07:29.175Z,22.73
2017-05-30T00:08:09.760Z,22.63
2017-05-30T00:08:50.360Z,22.63
2017-05-30T00:09:30.957Z,22.63
2017-05-30T00:10:11.542Z,22.62
2017-05-30T00:10:52.134Z,22.54
2017-05-30T00:11:32.722Z,22.6
2017-05-30T00:12:13.319Z,22.6
2017-05-30T00:12:53.888Z,22.59
2017-05-30T00:13:34.555Z,22.59
2017-05-30T00:14:15.151Z,22.6
2017-05-30T00:14:55.730Z,22.51
2017-05-30T00:15:36.312Z,22.53
2017-05-30T00:16:16.885Z,22.54
2017-05-30T00:16:57.461Z,22.43
2017-05-30T00:17:38.048Z,22.51
2017-05-30T00:18:18.636Z,22.47
2017-05-30T00:18:59.219Z,22.5
2017-05-30T00:19:39.823Z,22.5
2017-05-30T00:20:20.425Z,22.51
2017-05-30T00:21:01.009Z,22.54
2017-05-30T00:21:41.595Z,22.5
2017-05-30T00:22:22.178Z,22.5
2017-05-30T00:23:02.759Z,22.51
2017-05-30T00:23:43.346Z,22.51
2017-05-30T00:24:23.928Z,22.55
2017-05-30T00:25:04.520Z,22.57
2017-05-30T00:25:45.110Z,22.48
2017-05-30T00:26:25.697Z,22.5
2017-05-30T00:27:06.275Z,22.54
2017-05-30T00:27:46.847Z,22.57
2017-05-30T00:28:27.444Z,22.55
2017-05-30T00:29:08.030Z,22.54
2017-05-30T00:29:48.606Z,22.47
2017-05-30T00:30:29.193Z,22.48
2017-05-30T00:31:09.786Z,22.44
2017-05-30T00:31:50.379Z,22.43
2017-05-30T00:32:30.983Z,22.39
2017-05-30T00:33:11.548Z,22.51
2017-05-30T00:33:52.122Z,22.41
2017-05-30T00:34:32.703Z,22.41
2017-05-30T00:35:13.298Z,22.43
2017-05-30T00:35:53.876Z,22.44
2017-05-30T00:36:34.455Z,22.43
2017-05-30T00:37:15.031Z,22.36
2017-05-30T00:37:55.622Z,22.36
2017-05-30T00:38:36.207Z,22.39
2017-05-30T00:39:16.799Z,22.28
2017-05-30T00:39:57.377Z,22.33
2017-05-30T00:40:37.964Z,22.3
2017-05-30T00:41:18.535Z,22.36
2017-05-30T00:41:59.120Z,22.28
2017-05-30T00:42:39.681Z,22.35
2017-05-30T00:43:20.291Z,22.41
2017-05-30T00:44:00.872Z,22.38
2017-05-30T00:44:41.453Z,22.39
2017-05-30T00:45:22.028Z,22.35
2017-05-30T00:46:02.615Z,22.26
2017-05-30T00:46:43.206Z,22.28
2017-05-30T00:47:23.786Z,22.28
2017-05-30T00:48:04.370Z,22.25
2017-05-30T00:48:44.972Z,22.25
2017-05-30T00:49:25.556Z,22.33
2017-05-30T00:50:06.132Z,22.36
2017-05-30T00:50:46.726Z,22.32
2017-05-30T00:51:27.314Z,22.2
2017-05-30T00:52:07.908Z,22.23
2017-05-30T00:52:48.503Z,22.22
2017-05-30T00:53:29.093Z,22.23
2017-05-30T00:54:09.699Z,22.23
2017-05-30T00:54:50.285Z,22.18
2017-05-30T00:55:30.863Z,22.14
2017-05-30T00:56:11.450Z,22.23
2017-05-30T00:56:52.028Z,22.17
2017-05-30T00:57:32.620Z,22.1
2017-05-30T00:58:13.199Z,22.11
2017-05-30T00:58:53.796Z,22.22
2017-05-30T00:59:34.383Z,22.13
2017-05-30T01:00:14.997Z,22.1
2017-05-30T01:00:55.592Z,22.18
2017-05-30T01:01:36.180Z,22.08
2017-05-30T01:02:16.778Z,22.13
2017-05-30T01:02:57.375Z,22.22
2017-05-30T01:03:37.955Z,22.17
2017-05-30T01:04:18.533Z,22.15
2017-05-30T01:04:59.120Z,22.17
2017-05-30T01:05:39.711Z,22.23
2017-05-30T01:06:20.293Z,22.1
2017-05-30T01:07:00.886Z,22.1
2017-05-30T01:07:41.478Z,22.14
2017-05-30T01:08:22.056Z,22.26
2017-05-30T01:09:02.647Z,22.25
2017-05-30T01:09:43.241Z,22.25
2017-05-30T01:10:23.826Z,22.25
2017-05-30T01:11:04.394Z,22.17
2017-05-30T01:11:44.991Z,22.2
2017-05-30T01:12:25.564Z,22.26
2017-05-30T01:13:06.155Z,22.17
2017-05-30T01:13:46.746Z,22.15
2017-05-30T01:14:27.316Z,22.14
2017-05-30T01:15:07.915Z,22.18
2017-05-30T01:15:48.512Z,22.22
2017-05-30T01:16:29.099Z,22.13
2017-05-30T01:17:09.684Z,22.17
2017-05-30T01:17:50.267Z,22.13
2017-05-30T01:18:30.868Z,22.15
2017-05-30T01:19:11.460Z,22.17
2017-05-30T01:19:52.056Z,22.14
2017-05-30T01:20:32.645Z,22.1
2017-05-30T01:21:13.243Z,22.11
2017-05-30T01:21:53.841Z,22.13
2017-05-30T01:22:34.434Z,22.2
2017-05-30T01:23:15.032Z,22.22
2017-05-30T01:23:55.604Z,22.23
2017-05-30T01:24:36.195Z,22.23
2017-05-30T01:25:16.803Z,22.25
2017-05-30T01:25:57.398Z,22.23
2017-05-30T01:26:37.988Z,22.2
2017-05-30T01:27:18.582Z,22.2
2017-05-30T01:27:59.161Z,22.2
2017-05-30T01:28:39.742Z,22.15
2017-05-30T01:29:20.356Z,22.14
2017-05-30T01:30:00.951Z,22.22
2017-05-30T01:30:41.526Z,22.14
2017-05-30T01:31:22.109Z,22.14
2017-05-30T01:32:02.687Z,22.13
2017-05-30T01:32:43.272Z,22.23
2017-05-30T01:33:23.866Z,22.23
2017-05-30T01:34:04.446Z,22.33
2017-05-30T01:34:45.030Z,22.28
2017-05-30T01:35:25.600Z,22.18
2017-05-30T01:36:06.188Z,22.22
2017-05-30T01:36:46.780Z,22.2
2017-05-30T01:37:27.356Z,22.17
2017-05-30T01:38:07.949Z,22.18
2017-05-30T01:38:48.538Z,22.15
2017-05-30T01:39:29.165Z,22.14
2017-05-30T01:40:09.755Z,22.25
2017-05-30T01:40:50.335Z,22.14
2017-05-30T01:41:30.911Z,22.18
2017-05-30T01:42:11.501Z,22.18
2017-05-30T01:42:52.097Z,22.17
2017-05-30T01:43:32.682Z,22.13
2017-05-30T01:44:13.261Z,22.17
2017-05-30T01:44:53.849Z,22.14
2017-05-30T01:45:34.441Z,22.13
2017-05-30T01:46:15.062Z,22.15
2017-05-30T01:46:55.666Z,22.08
2017-05-30T01:47:36.251Z,22.06
2017-05-30T01:48:16.845Z,22.08
2017-05-30T01:48:57.461Z,22.11
2017-05-30T01:49:38.034Z,22.06
2017-05-30T01:50:18.620Z,22
2017-05-30T01:50:59.221Z,22.13
2017-05-30T01:51:39.801Z,22.02
2017-05-30T01:52:20.381Z,22.02
2017-05-30T01:53:00.967Z,21.99
2017-05-30T01:53:41.550Z,21.99
2017-05-30T01:54:22.131Z,22
2017-05-30T01:55:02.727Z,22.02
2017-05-30T01:55:43.318Z,22.1
2017-05-30T01:56:23.906Z,21.98
2017-05-30T01:57:04.490Z,22.04
2017-05-30T01:57:45.089Z,22.08
2017-05-30T01:58:25.663Z,22.11
2017-05-30T01:59:06.248Z,21.99
2017-05-30T01:59:46.833Z,22.02
2017-05-30T02:00:27.456Z,22.02
2017-05-30T02:01:08.102Z,22.08
2017-05-30T02:01:48.685Z,22.07
2017-05-30T02:02:29.301Z,22.14
2017-05-30T02:03:09.906Z,22.17
2017-05-30T02:03:50.509Z,22.15
2017-05-30T02:04:31.091Z,22.13
2017-05-30T02:05:11.688Z,22.02
2017-05-30T02:05:52.270Z,22.13
2017-05-30T02:06:32.917Z,22.02
2017-05-30T02:07:13.505Z,22.15
2017-05-30T02:07:54.106Z,22.17
2017-05-30T02:08:34.694Z,22.15
2017-05-30T02:09:15.312Z,22.25
2017-05-30T02:09:55.910Z,22.23
2017-05-30T02:10:36.493Z,22.14
2017-05-30T02:11:17.093Z,22.25
2017-05-30T02:11:57.678Z,22.11
2017-05-30T02:12:38.268Z,22.17
2017-05-30T02:13:18.854Z,22.1
2017-05-30T02:13:59.437Z,22.02
2017-05-30T02:14:40.026Z,22.1
2017-05-30T02:15:20.627Z,22.06
2017-05-30T02:16:01.214Z,22.02
2017-05-30T02:16:41.785Z,22.08
2017-05-30T02:17:22.382Z,21.93
2017-05-30T02:18:02.969Z,21.88
2017-05-30T02:18:43.566Z,21.89
2017-05-30T02:19:24.166Z,21.88
2017-05-30T02:20:04.745Z,21.91
2017-05-30T02:20:45.337Z,21.93
2017-05-30T02:21:25.926Z,21.83
2017-05-30T02:22:06.506Z,21.92
2017-05-30T02:22:47.099Z,21.93
2017-05-30T02:23:27.700Z,21.93
2017-05-30T02:24:08.283Z,21.91
2017-05-30T02:24:48.874Z,21.93
2017-05-30T02:25:29.459Z,21.88
2017-05-30T02:26:10.053Z,21.91
2017-05-30T02:26:50.686Z,21.92
2017-05-30T02:27:31.274Z,21.95
2017-05-30T02:28:11.876Z,21.95
2017-05-30T02:28:52.465Z,21.92
2017-05-30T02:29:33.070Z,21.89
2017-05-30T02:30:13.658Z,21.92
2017-05-30T02:30:54.254Z,21.93
2017-05-30T02:31:34.847Z,21.92
2017-05-30T02:32:15.444Z,21.89
2017-05-30T02:32:56.037Z,21.89
2017-05-30T02:33:36.638Z,21.88
2017-05-30T02:34:17.211Z,21.88
2017-05-30T02:34:57.795Z,21.75
2017-05-30T02:35:38.390Z,21.82
2017-05-30T02:36:18.974Z,21.77
2017-05-30T02:36:59.560Z,21.73
2017-05-30T02:37:40.137Z,21.61
2017-05-30T02:38:20.717Z,21.6
2017-05-30T02:39:01.298Z,21.61
2017-05-30T02:39:41.894Z,21.72
2017-05-30T02:40:23.086Z,21.69
2017-05-30T02:41:03.066Z,21.72
2017-05-30T02:41:43.654Z,21.83
2017-05-30T02:42:24.226Z,21.76
2017-05-30T02:43:04.822Z,21.82
2017-05-30T02:43:45.414Z,21.76
2017-05-30T02:44:26.009Z,21.8
2017-05-30T02:45:06.591Z,21.83
2017-05-30T02:45:47.171Z,21.69
2017-05-30T02:46:27.763Z,21.82
2017-05-30T02:47:08.348Z,21.82
2017-05-30T02:47:48.929Z,21.76
2017-05-30T02:48:29.519Z,21.88
2017-05-30T02:49:10.115Z,21.88
2017-05-30T02:49:50.711Z,21.8
2017-05-30T02:50:31.290Z,21.82
2017-05-30T02:51:11.884Z,21.79
2017-05-30T02:51:52.462Z,21.92
2017-05-30T02:52:33.051Z,21.82
2017-05-30T02:53:13.628Z,21.91
2017-05-30T02:53:54.209Z,21.88
2017-05-30T02:54:34.795Z,21.91
2017-05-30T02:55:15.381Z,21.83
2017-05-30T02:55:55.968Z,21.88
2017-05-30T02:56:36.542Z,21.92
2017-05-30T02:57:17.158Z,21.95
2017-05-30T02:57:57.754Z,21.89
2017-05-30T02:58:38.334Z,21.93
2017-05-30T02:59:18.935Z,21.89
2017-05-30T02:59:59.527Z,21.92
2017-05-30T03:00:40.128Z,21.91
2017-05-30T03:01:20.716Z,21.89
2017-05-30T03:02:01.313Z,21.91
2017-05-30T03:02:41.908Z,21.91
2017-05-30T03:03:22.502Z,21.92
2017-05-30T03:04:03.089Z,21.92
2017-05-30T03:04:43.748Z,21.89
2017-05-30T03:05:24.383Z,21.88
2017-05-30T03:06:04.957Z,21.89
2017-05-30T03:06:45.570Z,21.8
2017-05-30T03:07:26.167Z,21.91
2017-05-30T03:08:06.747Z,21.83
2017-05-30T03:08:47.337Z,21.89
2017-05-30T03:09:27.925Z,21.89
2017-05-30T03:10:08.513Z,21.79
2017-05-30T03:10:49.098Z,21.93
2017-05-30T03:11:29.685Z,21.85
2017-05-30T03:12:10.295Z,21.83
2017-05-30T03:12:50.884Z,21.92
2017-05-30T03:13:31.481Z,21.92
2017-05-30T03:14:12.073Z,21.93
2017-05-30T03:14:52.654Z,21.85
2017-05-30T03:15:33.234Z,21.92
2017-05-30T03:16:13.811Z,21.91
2017-05-30T03:16:54.402Z,21.89
2017-05-30T03:17:35.008Z,21.88
2017-05-30T03:18:15.599Z,21.92
2017-05-30T03:18:56.224Z,21.89
2017-05-30T03:19:36.812Z,21.85
2017-05-30T03:20:17.394Z,21.95
2017-05-30T03:20:57.993Z,21.91
2017-05-30T03:21:38.570Z,21.85
2017-05-30T03:22:19.157Z,21.83
2017-05-30T03:22:59.759Z,21.82
2017-05-30T03:23:40.357Z,21.77
2017-05-30T03:24:20.969Z,21.8
2017-05-30T03:25:01.560Z,21.83
2017-05-30T03:25:42.145Z,21.89
2017-05-30T03:26:22.743Z,21.82
2017-05-30T03:27:03.337Z,21.8
2017-05-30T03:27:43.929Z,21.76
2017-05-30T03:28:24.519Z,21.8
2017-05-30T03:29:05.125Z,21.8
2017-05-30T03:29:45.714Z,21.88
2017-05-30T03:30:26.300Z,21.83
2017-05-30T03:31:06.887Z,21.91
2017-05-30T03:31:47.479Z,21.95
2017-05-30T03:32:28.078Z,21.91
2017-05-30T03:33:08.650Z,21.93
2017-05-30T03:33:49.236Z,21.93
2017-05-30T03:34:29.851Z,21.92
2017-05-30T03:35:10.438Z,21.92
2017-05-30T03:35:51.038Z,21.92
2017-05-30T03:36:31.624Z,21.91
2017-05-30T03:37:12.207Z,21.98
2017-05-30T03:37:52.801Z,21.92
2017-05-30T03:38:33.395Z,21.95
2017-05-30T03:39:13.993Z,21.99
2017-05-30T03:39:54.586Z,21.96
2017-05-30T03:40:35.173Z,22.02
2017-05-30T03:41:15.779Z,21.96
2017-05-30T03:41:56.356Z,21.98
2017-05-30T03:42:36.937Z,21.93
2017-05-30T03:43:17.526Z,21.99
2017-05-30T03:43:58.113Z,21.93
2017-05-30T03:44:38.706Z,22
2017-05-30T03:45:19.322Z,21.95
2017-05-30T03:45:59.913Z,21.92
2017-05-30T03:46:40.504Z,21.95
2017-05-30T03:47:21.105Z,21.82
2017-05-30T03:48:01.686Z,21.95
2017-05-30T03:48:42.294Z,21.89
2017-05-30T03:49:22.896Z,21.95
2017-05-30T03:50:03.484Z,21.88
2017-05-30T03:50:44.093Z,21.91
2017-05-30T03:51:24.684Z,21.89
2017-05-30T03:52:05.282Z,21.95
2017-05-30T03:52:45.917Z,21.93
2017-05-30T03:53:26.427Z,22.04
2017-05-30T03:54:07.059Z,21.98
2017-05-30T03:54:47.647Z,22.04
2017-05-30T03:55:28.234Z,22.02
2017-05-30T03:56:08.831Z,21.98
2017-05-30T03:56:49.455Z,22.04
2017-05-30T03:57:30.036Z,21.99
2017-05-30T03:58:10.627Z,21.95
2017-05-30T03:58:51.221Z,21.99
2017-05-30T03:59:31.835Z,22
2017-05-30T04:00:12.423Z,22
2017-05-30T04:00:53.009Z,21.92
2017-05-30T04:01:33.606Z,21.92
2017-05-30T04:02:14.200Z,21.89
2017-05-30T04:02:54.793Z,21.89
2017-05-30T04:03:35.382Z,21.92
2017-05-30T04:04:15.966Z,21.85
2017-05-30T04:04:56.555Z,21.89
2017-05-30T04:05:37.134Z,21.91
2017-05-30T04:06:17.715Z,21.92
2017-05-30T04:06:58.305Z,21.96
2017-05-30T04:07:38.890Z,21.96
2017-05-30T04:08:19.486Z,21.98
2017-05-30T04:09:00.090Z,22.07
2017-05-30T04:09:40.669Z,22.07
2017-05-30T04:10:21.257Z,22.06
2017-05-30T04:11:01.854Z,22.07
2017-05-30T04:11:42.446Z,21.99
2017-05-30T04:12:23.030Z,22.11
2017-05-30T04:13:03.614Z,22.06
2017-05-30T04:13:44.215Z,22.02
2017-05-30T04:14:24.803Z,22.11
2017-05-30T04:15:05.401Z,22.13
2017-05-30T04:15:45.990Z,22.11
2017-05-30T04:16:26.612Z,22.15
2017-05-30T04:17:07.158Z,22
2017-05-30T04:17:47.756Z,22.07
2017-05-30T04:18:28.333Z,22.04
2017-05-30T04:19:08.933Z,22.02
2017-05-30T04:19:49.524Z,22.04
2017-05-30T04:20:30.116Z,21.99
2017-05-30T04:21:10.698Z,22.1
2017-05-30T04:21:51.285Z,22.08
2017-05-30T04:22:31.895Z,22.11
2017-05-30T04:23:12.499Z,22.1
2017-05-30T04:23:53.112Z,22.06
2017-05-30T04:24:33.704Z,22.11
2017-05-30T04:25:14.297Z,22.08
2017-05-30T04:25:54.900Z,22.15
2017-05-30T04:26:35.483Z,22.07
2017-05-30T04:27:16.093Z,22.04
2017-05-30T04:27:56.705Z,22.1
2017-05-30T04:28:37.303Z,22.14
2017-05-30T04:29:17.901Z,22.13
2017-05-30T04:29:58.496Z,22.15
2017-05-30T04:30:39.093Z,22.1
2017-05-30T04:31:19.681Z,22.13
2017-05-30T04:32:00.266Z,22.13
2017-05-30T04:32:40.846Z,22.2
2017-05-30T04:33:21.447Z,22.14
2017-05-30T04:34:02.017Z,22.18
2017-05-30T04:34:42.631Z,22.11
2017-05-30T04:35:23.225Z,22.08
2017-05-30T04:36:03.816Z,22.14
2017-05-30T04:36:44.392Z,22.15
2017-05-30T04:37:24.979Z,22.2
2017-05-30T04:38:05.557Z,22.15
2017-05-30T04:38:46.129Z,22.15
2017-05-30T04:39:26.702Z,22.22
2017-05-30T04:40:07.298Z,22.14
2017-05-30T04:40:47.870Z,22.17
2017-05-30T04:41:28.515Z,22.18
2017-05-30T04:42:09.093Z,22.17
2017-05-30T04:42:49.695Z,22.23
2017-05-30T04:43:30.301Z,22.08
2017-05-30T04:44:10.890Z,22.17
2017-05-30T04:44:51.486Z,22.15
2017-05-30T04:45:32.089Z,22.22
2017-05-30T04:46:12.671Z,22.18
2017-05-30T04:46:53.253Z,22.13
2017-05-30T04:47:33.840Z,22.22
2017-05-30T04:48:14.433Z,22.22
2017-05-30T04:48:55.010Z,22.18
2017-05-30T04:49:35.579Z,22.25
2017-05-30T04:50:16.187Z,22.22
2017-05-30T04:50:56.799Z,22.26
2017-05-30T04:51:37.379Z,22.26
2017-05-30T04:52:17.979Z,22.23
2017-05-30T04:52:58.572Z,22.26
2017-05-30T04:53:39.158Z,22.25
2017-05-30T04:54:19.743Z,22.3
2017-05-30T04:55:00.345Z,22.25
2017-05-30T04:55:41.024Z,22.2
2017-05-30T04:56:21.600Z,22.26
2017-05-30T04:57:02.188Z,22.25
2017-05-30T04:57:42.771Z,22.32
2017-05-30T04:58:23.394Z,22.29
2017-05-30T04:59:03.992Z,22.23
2017-05-30T04:59:44.574Z,22.3
2017-05-30T05:00:25.155Z,22.29
2017-05-30T05:01:05.757Z,22.35
2017-05-30T05:01:46.370Z,22.26
2017-05-30T05:02:26.953Z,22.33
2017-05-30T05:03:07.546Z,22.33
2017-05-30T05:03:48.137Z,22.3
2017-05-30T05:04:28.732Z,22.33
2017-05-30T05:05:09.335Z,22.26
2017-05-30T05:05:49.921Z,22.39
2017-05-30T05:06:30.513Z,22.36
2017-05-30T05:07:11.106Z,22.35
2017-05-30T05:07:51.688Z,22.39
2017-05-30T05:08:32.280Z,22.35
2017-05-30T05:09:12.872Z,22.26
2017-05-30T05:09:53.459Z,22.38
2017-05-30T05:10:34.055Z,22.33
2017-05-30T05:11:14.692Z,22.33
2017-05-30T05:11:55.324Z,22.23
2017-05-30T05:12:35.905Z,22.35
2017-05-30T05:13:16.519Z,22.22
2017-05-30T05:13:57.144Z,22.2
2017-05-30T05:14:37.748Z,22.32
2017-05-30T05:15:18.420Z,22.36
2017-05-30T05:15:59.032Z,22.36
2017-05-30T05:16:39.617Z,22.32
2017-05-30T05:17:20.196Z,22.38
2017-05-30T05:18:00.787Z,22.3
2017-05-30T05:18:41.373Z,22.33
2017-05-30T05:19:21.971Z,22.29
2017-05-30T05:20:02.564Z,22.3
2017-05-30T05:20:43.137Z,22.39
2017-05-30T05:21:23.722Z,22.26
2017-05-30T05:22:04.322Z,22.39
2017-05-30T05:22:44.888Z,22.32
2017-05-30T05:23:25.479Z,22.33
2017-05-30T05:24:06.056Z,22.36
2017-05-30T05:24:46.642Z,22.38
2017-05-30T05:25:27.234Z,22.38
2017-05-30T05:26:07.807Z,22.44
2017-05-30T05:26:48.395Z,22.59
2017-05-30T05:27:28.996Z,22.6
2017-05-30T05:28:09.589Z,22.63
2017-05-30T05:28:50.188Z,22.69
2017-05-30T05:29:30.781Z,22.76
2017-05-30T05:30:11.360Z,22.76
2017-05-30T05:30:51.955Z,22.99
2017-05-30T05:31:32.551Z,22.99
2017-05-30T05:32:13.152Z,23.17
2017-05-30T05:32:53.768Z,23.18
2017-05-30T05:33:34.366Z,23.34
2017-05-30T05:34:15.009Z,23.4
2017-05-30T05:34:55.590Z,23.34
2017-05-30T05:35:36.174Z,23.41
2017-05-30T05:36:16.759Z,23.5
2017-05-30T05:36:57.354Z,23.59
2017-05-30T05:37:37.938Z,23.56
2017-05-30T05:38:18.521Z,23.71
2017-05-30T05:38:59.165Z,23.69
2017-05-30T05:39:39.758Z,23.83
2017-05-30T05:40:20.374Z,23.84
2017-05-30T05:41:00.960Z,23.86
2017-05-30T05:41:41.584Z,23.95
2017-05-30T05:42:23.496Z,23.95
2017-05-30T05:43:04.128Z,24.03
2017-05-30T05:43:44.724Z,24.14
2017-05-30T05:44:25.319Z,24.2
2017-05-30T05:45:05.951Z,24.16
2017-05-30T05:45:48.023Z,24.32
2017-05-30T05:46:39.371Z,24.29
2017-05-30T05:47:19.953Z,24.48
2017-05-30T05:48:02.645Z,24.55
2017-05-30T05:50:14.017Z,24.76
2017-05-30T05:50:54.603Z,24.77
2017-05-30T05:51:35.202Z,24.88
2017-05-30T05:52:15.803Z,24.84
2017-05-30T05:52:56.405Z,24.98
2017-05-30T05:53:37.023Z,25.01
2017-05-30T05:54:17.630Z,25.08
2017-05-30T05:54:58.225Z,25.18
2017-05-30T05:55:38.885Z,25.23
2017-05-30T05:56:19.508Z,25.21
2017-05-30T05:57:00.120Z,25.32
2017-05-30T05:57:40.710Z,25.43
2017-05-30T05:58:21.317Z,25.41
2017-05-30T05:59:01.916Z,25.46
2017-05-30T05:59:42.546Z,25.5
2017-05-30T06:00:23.145Z,25.4
2017-05-30T06:01:03.770Z,25.38
2017-05-30T06:01:44.351Z,25.47
2017-05-30T06:02:24.959Z,25.58
2017-05-30T06:03:05.575Z,25.68
2017-05-30T06:03:46.191Z,25.66
2017-05-30T06:04:26.826Z,25.69
2017-05-30T06:05:07.443Z,25.8
2017-05-30T06:05:48.037Z,25.84
2017-05-30T06:06:28.627Z,25.88
2017-05-30T06:07:09.208Z,25.9
2017-05-30T06:07:49.797Z,25.95
2017-05-30T06:08:30.579Z,25.99
2017-05-30T06:09:11.172Z,26.1
2017-05-30T06:09:51.770Z,26.07
2017-05-30T06:10:32.401Z,26.18
2017-05-30T06:11:12.996Z,26.21
2017-05-30T06:11:53.603Z,26.19
2017-05-30T06:12:34.187Z,26.15
2017-05-30T06:13:14.779Z,26.26
2017-05-30T06:13:55.364Z,26.31
2017-05-30T06:14:35.962Z,26.34
2017-05-30T06:15:16.560Z,26.47
2017-05-30T06:15:57.188Z,26.47
2017-05-30T06:16:37.790Z,26.53
2017-05-30T06:17:18.407Z,26.68
2017-05-30T06:17:58.995Z,26.7
2017-05-30T06:18:39.580Z,26.74
2017-05-30T06:19:20.181Z,26.77
2017-05-30T06:20:00.769Z,26.77
2017-05-30T06:20:41.367Z,26.78
2017-05-30T06:21:21.988Z,26.84
2017-05-30T06:22:02.631Z,26.9
2017-05-30T06:22:43.244Z,26.92
2017-05-30T06:23:23.834Z,26.97
2017-05-30T06:24:04.432Z,27.03
2017-05-30T06:24:45.042Z,27
2017-05-30T06:25:25.619Z,27.08
2017-05-30T06:26:06.273Z,27.17
2017-05-30T06:26:46.864Z,27.25
2017-05-30T06:27:27.490Z,27.25
2017-05-30T06:28:08.095Z,27.22
2017-05-30T06:28:48.679Z,27.25
2017-05-30T06:29:29.273Z,27.25
2017-05-30T06:30:09.868Z,27.17
2017-05-30T06:30:50.470Z,27.27
2017-05-30T06:31:31.066Z,27.25
2017-05-30T06:32:11.683Z,27.3
2017-05-30T06:32:52.307Z,27.32
2017-05-30T06:33:32.907Z,27.27
2017-05-30T06:34:13.531Z,27.29
2017-05-30T06:34:54.263Z,27.21
2017-05-30T06:35:34.901Z,27.27
2017-05-30T06:36:15.551Z,27.3
2017-05-30T06:36:56.153Z,27.22
2017-05-30T06:37:36.741Z,27.39
2017-05-30T06:38:17.396Z,27.35
2017-05-30T06:38:58.048Z,27.35
2017-05-30T06:39:38.709Z,27.3
2017-05-30T06:40:19.355Z,27.51
2017-05-30T06:40:59.987Z,27.4
2017-05-30T06:41:40.597Z,27.42
2017-05-30T06:42:21.326Z,27.54
2017-05-30T06:43:01.999Z,27.49
2017-05-30T06:43:42.654Z,27.52
2017-05-30T06:44:23.293Z,27.52
2017-05-30T06:45:03.932Z,27.67
2017-05-30T06:45:44.536Z,27.67
2017-05-30T06:46:25.189Z,27.71
2017-05-30T06:47:05.791Z,27.68
2017-05-30T06:47:46.390Z,27.67
2017-05-30T06:48:26.975Z,27.68
2017-05-30T06:49:07.565Z,27.6
2017-05-30T06:49:48.159Z,27.67
2017-05-30T06:50:28.764Z,27.63
2017-05-30T06:51:09.363Z,27.71
2017-05-30T06:51:49.960Z,27.71
2017-05-30T06:52:30.556Z,27.77
2017-05-30T06:53:11.180Z,27.8
2017-05-30T06:53:51.781Z,27.86
2017-05-30T06:54:32.398Z,27.85
2017-05-30T06:55:13.117Z,27.82
2017-05-30T06:55:53.711Z,27.78
2017-05-30T06:56:34.306Z,27.73
2017-05-30T06:57:14.906Z,27.73
2017-05-30T06:57:55.507Z,27.74
2017-05-30T06:58:36.095Z,27.77
2017-05-30T06:59:16.741Z,27.71
2017-05-30T06:59:57.329Z,27.64
2017-05-30T07:00:37.951Z,27.67
2017-05-30T07:01:18.552Z,27.74
2017-05-30T07:01:59.165Z,27.71
2017-05-30T07:02:39.777Z,27.7
2017-05-30T07:03:20.365Z,27.75
2017-05-30T07:04:00.972Z,27.67
2017-05-30T07:04:41.576Z,27.75
2017-05-30T07:05:22.185Z,27.71
2017-05-30T07:06:02.779Z,27.67
2017-05-30T07:06:43.452Z,27.63
2017-05-30T07:07:24.068Z,27.58
2017-05-30T07:08:04.675Z,27.49
2017-05-30T07:08:45.348Z,27.52
2017-05-30T07:09:26.013Z,27.59
2017-05-30T07:10:06.661Z,27.52
2017-05-30T07:10:47.447Z,27.7
2017-05-30T07:11:28.086Z,27.75
2017-05-30T07:12:08.674Z,27.7
2017-05-30T07:12:49.256Z,27.74
2017-05-30T07:13:29.849Z,27.71
2017-05-30T07:14:10.430Z,27.74
2017-05-30T07:14:51.059Z,27.75
2017-05-30T07:15:31.657Z,27.73
2017-05-30T07:16:12.237Z,27.85
2017-05-30T07:16:52.853Z,27.89
2017-05-30T07:17:33.447Z,27.9
2017-05-30T07:18:14.054Z,27.89
2017-05-30T07:18:54.653Z,27.93
2017-05-30T07:19:35.254Z,27.9
2017-05-30T07:20:15.869Z,27.9
2017-05-30T07:20:56.479Z,27.86
2017-05-30T07:21:37.074Z,27.74
2017-05-30T07:22:17.913Z,27.68
2017-05-30T07:22:58.661Z,27.71
2017-05-30T07:23:39.504Z,27.55
2017-05-30T07:24:20.298Z,27.54
2017-05-30T07:25:01.055Z,27.52
2017-05-30T07:25:41.865Z,27.6
2017-05-30T07:26:22.619Z,27.67
2017-05-30T07:27:03.449Z,27.73
2017-05-30T07:27:44.233Z,27.78
2017-05-30T07:28:24.934Z,27.87
2017-05-30T07:29:05.750Z,27.85
2017-05-30T07:29:46.468Z,27.96
2017-05-30T07:30:27.208Z,28.02
2017-05-30T07:31:07.852Z,28.14
2017-05-30T07:31:48.529Z,28.15
2017-05-30T07:32:29.297Z,28.17
2017-05-30T07:33:10.296Z,28.14
2017-05-30T07:33:50.985Z,28.11
2017-05-30T07:34:31.606Z,28
2017-05-30T07:35:12.230Z,28
2017-05-30T07:35:52.816Z,27.89
2017-05-30T07:36:33.410Z,27.86
2017-05-30T07:37:14.003Z,27.77
2017-05-30T07:37:54.598Z,27.7
2017-05-30T07:38:35.209Z,27.55
2017-05-30T07:39:15.859Z,27.54
2017-05-30T07:39:56.426Z,27.48
2017-05-30T07:40:37.017Z,27.45
2017-05-30T07:41:17.604Z,27.44
2017-05-30T07:41:58.251Z,27.47
2017-05-30T07:42:38.865Z,27.49
2017-05-30T07:43:19.460Z,27.54
2017-05-30T07:44:00.037Z,27.65
2017-05-30T07:44:40.636Z,27.75
2017-05-30T07:45:21.230Z,27.85
2017-05-30T07:46:01.829Z,27.83
2017-05-30T07:46:42.415Z,27.85
2017-05-30T07:47:23.014Z,27.92
2017-05-30T07:48:03.600Z,27.9
2017-05-30T07:48:44.200Z,27.98
2017-05-30T07:49:24.809Z,27.98
2017-05-30T07:50:05.397Z,28.15
2017-05-30T07:50:46.004Z,28.15
2017-05-30T07:51:26.600Z,28.26
2017-05-30T07:52:07.209Z,28.37
2017-05-30T07:52:47.795Z,28.33
2017-05-30T07:53:28.384Z,28.45
2017-05-30T07:54:09.047Z,28.54
2017-05-30T07:54:49.604Z,28.56
2017-05-30T07:55:30.200Z,28.56
2017-05-30T07:56:10.786Z,28.56
2017-05-30T07:56:51.435Z,28.67
2017-05-30T07:57:32.070Z,28.69
2017-05-30T07:58:12.666Z,28.66
2017-05-30T07:58:53.274Z,28.76
2017-05-30T07:59:33.878Z,28.81
2017-05-30T08:00:14.469Z,28.85
2017-05-30T08:00:55.049Z,28.7
2017-05-30T08:01:35.644Z,28.74
2017-05-30T08:02:16.240Z,28.7
2017-05-30T08:02:56.895Z,28.64
2017-05-30T08:03:37.501Z,28.59
2017-05-30T08:04:18.111Z,28.54
2017-05-30T08:04:58.702Z,28.51
2017-05-30T08:05:39.298Z,28.56
2017-05-30T08:06:19.935Z,28.63
2017-05-30T08:07:00.538Z,28.64
2017-05-30T08:07:41.126Z,28.67
2017-05-30T08:08:21.731Z,28.67
2017-05-30T08:09:02.383Z,28.72
2017-05-30T08:09:44.465Z,28.69
2017-05-30T08:10:25.627Z,28.72
2017-05-30T08:11:11.048Z,28.72
2017-05-30T08:11:56.679Z,28.72
2017-05-30T08:12:37.275Z,28.67
2017-05-30T08:13:17.866Z,28.79
2017-05-30T08:13:58.963Z,28.66
2017-05-30T08:14:39.565Z,28.67
2017-05-30T08:15:20.172Z,28.7
2017-05-30T08:16:00.828Z,28.67
2017-05-30T08:16:41.416Z,28.7
2017-05-30T08:17:22.010Z,28.7
2017-05-30T08:18:02.607Z,28.75
2017-05-30T08:18:43.479Z,28.7
2017-05-30T08:19:24.079Z,28.7
2017-05-30T08:20:04.684Z,28.69
2017-05-30T08:20:46.364Z,28.69
2017-05-30T08:21:27.047Z,28.78
2017-05-30T08:22:07.633Z,28.84
2017-05-30T08:22:49.080Z,28.78
2017-05-30T08:23:29.709Z,28.84
2017-05-30T08:24:10.302Z,28.78
2017-05-30T08:24:50.917Z,28.82
2017-05-30T08:25:31.641Z,28.88
2017-05-30T08:26:12.243Z,28.89
2017-05-30T08:26:53.408Z,28.93
2017-05-30T08:27:34.041Z,28.91
2017-05-30T08:28:14.649Z,28.94
2017-05-30T08:28:55.224Z,28.91
2017-05-30T08:29:35.816Z,28.97
2017-05-30T08:30:16.406Z,28.97
2017-05-30T08:30:57.037Z,28.96
2017-05-30T08:31:37.660Z,29.01
2017-05-30T08:32:18.249Z,29.1
2017-05-30T08:32:58.840Z,29.14
2017-05-30T08:33:39.597Z,29.16
2017-05-30T08:34:20.197Z,29.13
2017-05-30T08:35:00.770Z,29.13
2017-05-30T08:35:41.365Z,29.07
2017-05-30T08:36:21.960Z,29.01
2017-05-30T08:37:02.565Z,28.89
2017-05-30T08:37:43.161Z,28.81
2017-05-30T08:38:23.758Z,28.91
2017-05-30T08:39:04.359Z,28.85
2017-05-30T08:39:50.537Z,28.88
2017-05-30T08:40:32.756Z,28.93
2017-05-30T08:41:15.352Z,28.98
2017-05-30T08:41:56.416Z,28.94
2017-05-30T08:42:36.980Z,28.96
2017-05-30T08:43:17.558Z,29.01
2017-05-30T08:43:58.152Z,29.02
2017-05-30T08:44:39.134Z,28.97
2017-05-30T08:45:19.728Z,28.98
2017-05-30T08:46:03.265Z,28.98
2017-05-30T08:46:45.646Z,29.02
2017-05-30T08:47:26.247Z,28.96